createdAt,value
2023-01-19T00:00:02.041Z,93.65
2023-01-19T00:05:01.551Z,93.56
2023-01-19T00:10:01.829Z,93.56
2023-01-19T00:20:01.931Z,93.8
2023-01-19T00:25:01.915Z,93.89
2023-01-19T00:30:02.264Z,94.08
2023-01-19T00:35:01.632Z,94.25
2023-01-19T00:40:01.983Z,94.43
2023-01-19T00:45:02.256Z,94.85
2023-01-19T00:50:01.857Z,94.97
2023-01-19T00:55:01.729Z,95.01
2023-01-19T01:00:02.208Z,95.04
2023-01-19T01:05:01.376Z,94.64
2023-01-19T01:10:01.786Z,94.64
2023-01-19T01:15:01.766Z,94.3
2023-01-19T01:20:01.855Z,93.92
2023-01-19T01:25:01.508Z,93.99
2023-01-19T01:30:02.140Z,93.89
2023-01-19T01:35:01.409Z,93.81
2023-01-19T01:40:01.771Z,93.88
2023-01-19T01:45:01.804Z,93.57
2023-01-19T01:50:01.878Z,93.48
2023-01-19T01:55:02.173Z,93.7
2023-01-19T02:00:02.109Z,93.82
2023-01-19T02:05:01.987Z,94.12
2023-01-19T02:10:01.603Z,94.09
2023-01-19T02:15:01.914Z,94.09
2023-01-19T02:20:02.000Z,94.49
2023-01-19T02:25:01.415Z,94.49
2023-01-19T02:30:02.111Z,95.18
2023-01-19T02:35:01.283Z,94.92
2023-01-19T02:40:01.980Z,94.67
2023-01-19T02:45:01.712Z,94.58
2023-01-19T02:50:02.000Z,94.56
2023-01-19T02:55:01.484Z,94.15
2023-01-19T03:00:01.738Z,94.15
2023-01-19T03:05:03.460Z,93.45
2023-01-19T03:10:02.245Z,93.32
2023-01-19T03:15:02.202Z,93.45
2023-01-19T03:20:02.285Z,93.31
2023-01-19T03:25:01.980Z,93.1
2023-01-19T03:30:01.875Z,93.32
2023-01-19T03:35:01.680Z,93.12
2023-01-19T03:40:01.661Z,93.53
2023-01-19T03:45:02.061Z,93.58
2023-01-19T03:50:02.194Z,93.64
2023-01-19T03:55:01.789Z,93.69
2023-01-19T04:00:01.964Z,93.97
2023-01-19T04:05:02.099Z,94.23
2023-01-19T04:10:01.480Z,94.28
2023-01-19T04:15:02.145Z,94.41
2023-01-19T04:20:01.746Z,94.44
2023-01-19T04:25:02.087Z,94.64
2023-01-19T04:30:01.943Z,94.72
2023-01-19T04:35:01.676Z,94.85
2023-01-19T04:40:02.269Z,94.72
2023-01-19T04:45:02.052Z,94.41
2023-01-19T04:50:02.026Z,94.19
2023-01-19T04:55:02.146Z,94.06
2023-01-19T05:00:01.667Z,93.4
2023-01-19T05:05:02.286Z,93.25
2023-01-19T05:10:01.982Z,93.04
2023-01-19T05:15:01.620Z,93.22
2023-01-19T05:20:02.427Z,93.58
2023-01-19T05:25:02.184Z,93.48
2023-01-19T05:30:01.948Z,93.55
2023-01-19T05:35:01.879Z,93.34
2023-01-19T05:40:01.544Z,93.16
2023-01-19T05:45:01.932Z,93.27
2023-01-19T05:50:01.551Z,92.76
2023-01-19T05:55:01.617Z,92.55
2023-01-19T06:00:02.189Z,92.73
2023-01-19T06:05:02.261Z,92.45
2023-01-19T06:10:01.929Z,92.59
2023-01-19T06:15:02.278Z,93.15
2023-01-19T06:20:01.595Z,93.66
2023-01-19T06:25:02.222Z,94.16
2023-01-19T06:30:02.085Z,95.19
2023-01-19T06:35:02.257Z,96.23
2023-01-19T06:40:01.509Z,97.66
2023-01-19T06:45:02.116Z,96.99
2023-01-19T06:50:02.059Z,97.69
2023-01-19T06:55:02.158Z,99.14
2023-01-19T07:00:01.705Z,98.79
2023-01-19T07:05:01.472Z,99.24
2023-01-19T07:10:01.543Z,99.76
2023-01-19T07:15:01.385Z,99.88
2023-01-19T07:20:01.635Z,98.53
2023-01-19T07:25:02.158Z,98.79
2023-01-19T07:30:01.969Z,100.25
2023-01-19T07:35:01.501Z,98.32
2023-01-19T07:40:02.172Z,98.25
2023-01-19T07:45:01.742Z,98.49
2023-01-19T07:50:02.227Z,98.5
2023-01-19T07:55:01.637Z,98.51
2023-01-19T08:00:02.312Z,98.53
2023-01-19T08:05:01.916Z,98.82
2023-01-19T08:10:01.769Z,98.79
2023-01-19T08:15:02.066Z,98.84
2023-01-19T08:20:01.581Z,98.85
2023-01-19T08:25:01.709Z,98.83
2023-01-19T08:30:01.527Z,98.95
2023-01-19T08:35:01.594Z,98.93
2023-01-19T08:40:01.616Z,99.04
2023-01-19T08:45:02.224Z,99.06
2023-01-19T08:50:01.994Z,99.17
2023-01-19T08:55:01.569Z,99.04
2023-01-19T09:00:01.412Z,99.05
2023-01-19T09:05:01.391Z,98.91
2023-01-19T09:10:02.137Z,98.96
2023-01-19T09:15:02.155Z,98.95
2023-01-19T09:20:01.521Z,99.14
2023-01-19T09:25:01.391Z,98.9
2023-01-19T09:30:01.527Z,98.94
2023-01-19T09:35:02.013Z,98.89
2023-01-19T09:40:02.108Z,98.73
2023-01-19T09:45:01.907Z,98.65
2023-01-19T09:50:01.514Z,98.72
2023-01-19T09:55:01.570Z,98.5
2023-01-19T10:00:02.212Z,98.47
2023-01-19T10:05:01.848Z,98.49
2023-01-19T10:10:01.876Z,98.34
2023-01-19T10:15:02.822Z,98.31
2023-01-19T10:20:02.076Z,99.02
2023-01-19T10:25:01.782Z,98.5
2023-01-19T10:30:01.756Z,98.96
2023-01-19T10:35:02.284Z,98.19
2023-01-19T10:40:01.732Z,98.29
2023-01-19T10:45:02.040Z,98.53
2023-01-19T10:50:01.931Z,98.09
2023-01-19T10:55:01.725Z,98.28
2023-01-19T11:00:02.508Z,98.05
2023-01-19T11:05:02.098Z,98.15
2023-01-19T11:10:01.919Z,100.19
2023-01-19T11:15:02.209Z,100.13
2023-01-19T11:20:02.075Z,98.35
2023-01-19T11:25:02.373Z,100.05
2023-01-19T11:30:02.058Z,98.6
2023-01-19T11:35:01.611Z,97.66
2023-01-19T11:40:02.013Z,98.33
2023-01-19T11:45:02.404Z,99.94
2023-01-19T11:50:01.820Z,97.9
2023-01-19T11:55:01.999Z,97.78
2023-01-19T12:00:02.463Z,97.73
2023-01-19T12:05:02.046Z,97.35
2023-01-19T12:10:01.815Z,97.47
2023-01-19T12:15:01.998Z,96.79
2023-01-19T12:20:02.175Z,96.4
2023-01-19T12:25:01.720Z,98.92
2023-01-19T12:30:01.871Z,96.48
2023-01-19T12:35:02.291Z,99.14
2023-01-19T12:40:01.578Z,95.51
2023-01-19T12:45:01.471Z,95.53
2023-01-19T12:50:02.190Z,95.29
2023-01-19T12:55:01.838Z,98.3
2023-01-19T13:00:01.436Z,97.91
2023-01-19T13:05:02.208Z,98.05
2023-01-19T13:10:02.027Z,97.26
2023-01-19T13:15:01.711Z,98.1
2023-01-19T13:20:01.595Z,97.1
2023-01-19T13:25:02.510Z,96.57
2023-01-19T13:30:02.183Z,96.36
2023-01-19T13:35:02.562Z,97.32
2023-01-19T13:40:01.928Z,95.75
2023-01-19T13:45:01.912Z,96.25
2023-01-19T13:50:01.674Z,96.39
2023-01-19T13:55:03.648Z,96.22
2023-01-19T14:00:01.859Z,96.23
2023-01-19T14:05:01.603Z,96.65
2023-01-19T14:10:01.432Z,96.66
2023-01-19T14:15:01.954Z,96.66
2023-01-19T14:20:01.557Z,96.58
2023-01-19T14:25:01.920Z,96.5
2023-01-19T14:30:02.226Z,96.09
2023-01-19T14:35:01.472Z,96.01
2023-01-19T14:40:01.991Z,96.37
2023-01-19T14:45:01.776Z,96.54
2023-01-19T14:50:02.144Z,97.11
2023-01-19T14:55:02.231Z,97.21
2023-01-19T15:00:01.376Z,97.74
2023-01-19T15:05:01.993Z,97.44
2023-01-19T15:10:01.611Z,97.67
2023-01-19T15:15:02.142Z,96.51
2023-01-19T15:20:01.507Z,97.21
2023-01-19T15:25:01.969Z,96.5
2023-01-19T15:30:01.554Z,96.73
2023-01-19T15:35:02.248Z,96.78
2023-01-19T15:40:01.609Z,96.65
2023-01-19T15:45:02.024Z,96.65
2023-01-19T15:50:01.782Z,96.88
2023-01-19T15:55:01.866Z,97.25
2023-01-19T16:00:01.732Z,97.37
2023-01-19T16:05:02.215Z,96.93
2023-01-19T16:10:02.071Z,96.92
2023-01-19T16:15:02.135Z,96.05
2023-01-19T16:20:01.725Z,95.06
2023-01-19T16:25:02.061Z,94.52
2023-01-19T16:30:02.145Z,94.39
2023-01-19T16:35:01.517Z,94.64
2023-01-19T16:40:02.026Z,94.19
2023-01-19T16:45:01.459Z,94.42
2023-01-19T16:50:01.993Z,94.29
2023-01-19T16:55:02.215Z,94.23
2023-01-19T17:00:01.663Z,93.84
2023-01-19T17:05:02.104Z,94.46
2023-01-19T17:10:01.659Z,94.28
2023-01-19T17:15:01.509Z,94.22
2023-01-19T17:20:02.207Z,93.65
2023-01-19T17:25:01.540Z,94.09
2023-01-19T17:30:02.193Z,94.27
2023-01-19T17:35:01.815Z,93.99
2023-01-19T17:40:01.660Z,94.28
2023-01-19T17:45:02.199Z,93.61
2023-01-19T17:50:01.676Z,93.22
2023-01-19T17:55:02.217Z,94.09
2023-01-19T18:00:01.475Z,94.35
2023-01-19T18:05:02.013Z,94.59
2023-01-19T18:10:01.434Z,94.73
2023-01-19T18:15:02.043Z,94.54
2023-01-19T18:20:01.688Z,93.64
2023-01-19T18:25:02.107Z,94.95
2023-01-19T18:30:01.408Z,93.7
2023-01-19T18:35:02.063Z,92.09
2023-01-19T18:40:01.421Z,92.09
2023-01-19T18:45:01.406Z,92.95
2023-01-19T18:50:01.817Z,93.4
2023-01-19T18:55:02.127Z,93.33
2023-01-19T19:00:01.667Z,93.54
2023-01-19T19:05:02.051Z,93.8
2023-01-19T19:10:01.662Z,94.06
2023-01-19T19:15:01.987Z,94.06
2023-01-19T19:20:01.818Z,94.28
2023-01-19T19:25:01.403Z,94.98
2023-01-19T19:30:01.836Z,95.82
2023-01-19T19:35:01.990Z,96.13
2023-01-19T19:40:02.121Z,95.67
2023-01-19T19:45:01.468Z,94.32
2023-01-19T19:50:02.215Z,93.2
2023-01-19T19:55:01.618Z,92.91
2023-01-19T20:00:02.174Z,93.36
2023-01-19T20:05:02.014Z,93.83
2023-01-19T20:10:01.493Z,93.99
2023-01-19T20:15:01.933Z,93.66
2023-01-19T20:20:02.331Z,92.61
2023-01-19T20:25:01.586Z,92.55
2023-01-19T20:30:02.099Z,92.17
2023-01-19T20:35:01.869Z,94.69
2023-01-19T20:40:02.057Z,95.18
2023-01-19T20:45:02.111Z,95.67
2023-01-19T20:50:01.530Z,95.89
2023-01-19T20:55:01.867Z,95.71
2023-01-19T21:00:02.110Z,95.41
2023-01-19T21:05:01.463Z,95.37
2023-01-19T21:10:02.187Z,95.8
2023-01-19T21:15:01.531Z,95.31
2023-01-19T21:20:02.002Z,95.31
2023-01-19T21:25:02.256Z,95.17
2023-01-19T21:30:01.527Z,94.8
2023-01-19T21:35:02.092Z,94.64
2023-01-19T21:40:01.982Z,95.02
2023-01-19T21:45:01.575Z,94.28
2023-01-19T21:50:01.894Z,94.18
2023-01-19T21:55:02.039Z,93.91
2023-01-19T22:00:01.441Z,93.84
2023-01-19T22:05:02.249Z,93.29
2023-01-19T22:10:01.600Z,93.16
2023-01-19T22:15:01.791Z,93.25
2023-01-19T22:20:02.241Z,93.38
2023-01-19T22:25:01.778Z,93.77
2023-01-19T22:30:02.240Z,93.69
2023-01-19T22:35:01.707Z,93.83
2023-01-19T22:40:01.849Z,94.16
2023-01-19T22:45:02.021Z,94.06
2023-01-19T22:50:02.230Z,94.12
2023-01-19T22:55:01.385Z,93.86
2023-01-19T23:00:02.410Z,93.65
2023-01-19T23:05:01.543Z,93.3
2023-01-19T23:10:01.341Z,93.47
2023-01-19T23:15:01.777Z,93.25
2023-01-19T23:20:01.475Z,94.35
2023-01-19T23:25:02.128Z,94.27
2023-01-19T23:30:02.249Z,94.4
2023-01-19T23:35:01.424Z,94.66
2023-01-19T23:40:01.702Z,94.38
2023-01-19T23:45:02.216Z,94.43
2023-01-19T23:50:01.445Z,94.64
2023-01-19T23:55:01.867Z,94.82
